Time;durP1;ratioP1;P1;durP2;ratioP2;P2;SDS_P1;SDS_P2;PMS_P1;PMS_P2;Temp;Humidity;BMP_temperature;BMP_pressure;BME280_temperature;BME280_humidity;BME280_pressure;Samples;Min_cycle;Max_cycle;Signal;HPM_P1;HPM_P2
2022/09/12 00:00:30;;;;;;;13.73;8.20;;;14.30;99.90;;;;;;4931555;28;206798;-70
2022/09/12 00:02:57;;;;;;;13.25;8.90;;;14.30;99.90;;;;;;4962422;28;20065;-70
2022/09/12 00:05:25;;;;;;;13.27;6.60;;;14.30;99.90;;;;;;4934178;28;207082;-71
2022/09/12 00:07:51;;;;;;;14.02;8.45;;;14.30;99.90;;;;;;4968829;28;20069;-70
2022/09/12 00:10:17;;;;;;;17.02;9.10;;;14.30;99.90;;;;;;4935281;28;214778;-71
2022/09/12 00:12:43;;;;;;;13.68;9.60;;;14.30;99.90;;;;;;4975889;28;20105;-70
2022/09/12 00:15:10;;;;;;;10.20;6.57;;;14.20;99.90;;;;;;4933093;28;209847;-71
2022/09/12 00:17:37;;;;;;;13.15;7.85;;;14.20;99.90;;;;;;4977899;28;20051;-69
2022/09/12 00:20:08;;;;;;;13.20;7.03;;;14.20;99.90;;;;;;4945477;28;210570;-70
2022/09/12 00:22:37;;;;;;;11.35;7.88;;;14.10;99.90;;;;;;4982017;28;20527;-70
2022/09/12 00:25:04;;;;;;;12.43;7.55;;;14.10;99.90;;;;;;4943883;28;211507;-71
2022/09/12 00:27:30;;;;;;;16.58;8.45;;;14.10;99.90;;;;;;4991588;28;20054;-70
2022/09/12 00:29:56;;;;;;;13.23;8.00;;;14.10;99.90;;;;;;4970655;28;208771;-70
2022/09/12 00:32:22;;;;;;;17.75;9.77;;;14.10;99.90;;;;;;4931418;28;206523;-71
2022/09/12 00:34:48;;;;;;;15.05;9.93;;;14.00;99.90;;;;;;4986663;28;20395;-71
2022/09/12 00:37:15;;;;;;;12.82;8.98;;;14.00;99.90;;;;;;4944378;28;209370;-70
2022/09/12 00:39:41;;;;;;;13.48;8.57;;;14.00;99.90;;;;;;4988977;28;20427;-70
2022/09/12 00:42:09;;;;;;;15.80;10.60;;;14.00;99.90;;;;;;4947446;28;221912;-70
2022/09/12 00:44:43;;;;;;;11.77;8.43;;;14.00;99.90;;;;;;4981226;28;20050;-71
2022/09/12 00:47:40;;;;;;;12.93;9.23;;;13.90;99.90;;;;;;4953638;28;210415;-69
2022/09/12 00:50:13;;;;;;;13.75;10.13;;;13.90;99.90;;;;;;4897851;28;44923;-70
2022/09/12 00:52:45;;;;;;;14.38;10.40;;;13.90;99.90;;;;;;4894171;29;20051;-70
2022/09/12 00:55:31;;;;;;;15.57;11.07;;;13.90;99.90;;;;;;4881263;29;208197;-68
2022/09/12 00:58:02;;;;;;;15.82;11.88;;;13.90;99.90;;;;;;4888881;29;20075;-69
2022/09/12 01:00:29;;;;;;;16.08;11.75;;;13.90;99.90;;;;;;4846088;29;217519;-69
2022/09/12 01:03:06;;;;;;;17.73;12.45;;;13.90;99.90;;;;;;4901557;29;20544;-70
2022/09/12 01:05:35;;;;;;;18.05;13.55;;;13.90;99.90;;;;;;4857860;29;210263;-70
2022/09/12 01:08:03;;;;;;;18.35;13.70;;;13.90;99.90;;;;;;4930529;29;20056;-69
2022/09/12 01:10:30;;;;;;;18.75;14.13;;;13.90;99.90;;;;;;4878008;29;213905;-69
2022/09/12 01:12:57;;;;;;;17.50;13.45;;;13.90;99.90;;;;;;4927912;29;20060;-70
2022/09/12 01:15:23;;;;;;;15.75;12.98;;;13.90;99.90;;;;;;4865169;29;207119;-70
2022/09/12 01:18:03;;;;;;;14.68;11.13;;;14.00;99.90;;;;;;4911799;29;20071;-70
2022/09/12 01:20:35;;;;;;;18.33;11.88;;;14.00;99.90;;;;;;4884997;28;206331;-70
2022/09/12 01:23:28;;;;;;;19.45;12.15;;;13.90;99.90;;;;;;4928005;29;20059;-70
2022/09/12 01:26:12;;;;;;;15.85;12.30;;;13.80;99.90;;;;;;4896327;28;203242;-70
2022/09/12 01:28:57;;;;;;;19.25;14.45;;;13.80;99.90;;;;;;4973096;28;20503;-70
2022/09/12 01:31:46;;;;;;;22.17;13.60;;;13.80;99.90;;;;;;4937765;28;206539;-70
2022/09/12 01:34:25;;;;;;;21.08;14.52;;;13.80;99.90;;;;;;4989435;28;20045;-70
2022/09/12 01:37:03;;;;;;;17.27;14.38;;;13.80;99.90;;;;;;4941576;28;210398;-69
2022/09/12 01:39:36;;;;;;;17.95;14.73;;;13.80;99.90;;;;;;4983553;28;20063;-69
2022/09/12 01:42:34;;;;;;;20.88;15.52;;;13.80;99.90;;;;;;4953321;28;143899;-69
2022/09/12 01:45:10;;;;;;;20.27;17.08;;;13.70;99.90;;;;;;4947004;28;209851;-70
2022/09/12 01:47:41;;;;;;;21.58;16.52;;;13.80;99.90;;;;;;4983061;28;20074;-69
2022/09/12 01:50:18;;;;;;;22.10;16.77;;;13.70;99.90;;;;;;4932464;28;208776;-70
2022/09/12 01:52:54;;;;;;;24.95;17.90;;;13.80;99.90;;;;;;4982646;28;20065;-70
2022/09/12 01:55:35;;;;;;;20.00;16.48;;;13.80;99.90;;;;;;4936258;28;217713;-69
2022/09/12 01:58:06;;;;;;;23.75;17.90;;;13.80;99.90;;;;;;4977971;28;20046;-68
2022/09/12 02:00:41;;;;;;;24.10;19.45;;;13.80;99.90;;;;;;4950611;28;172044;-69
2022/09/12 02:03:13;;;;;;;23.08;18.40;;;13.80;99.90;;;;;;4997407;28;20057;-70
2022/09/12 02:06:01;;;;;;;21.23;17.33;;;13.80;99.90;;;;;;4942801;28;205307;-70
2022/09/12 02:08:37;;;;;;;23.60;17.63;;;13.80;99.90;;;;;;4984590;28;20061;-70
2022/09/12 02:11:08;;;;;;;25.35;20.20;;;13.80;99.90;;;;;;4948487;28;209533;-69
2022/09/12 02:14:09;;;;;;;22.55;19.50;;;13.80;99.90;;;;;;4984644;28;20069;-69
2022/09/12 02:16:50;;;;;;;24.75;20.40;;;13.80;99.90;;;;;;4901098;28;206471;-70
2022/09/12 02:19:22;;;;;;;22.38;18.80;;;13.80;99.90;;;;;;4941712;28;20059;-69
2022/09/12 02:21:57;;;;;;;25.42;19.05;;;13.80;99.90;;;;;;4908264;28;206339;-69
2022/09/12 02:24:38;;;;;;;29.48;19.58;;;13.80;99.90;;;;;;4958589;28;20063;-68
2022/09/12 02:27:15;;;;;;;27.83;20.65;;;13.80;99.90;;;;;;4924135;28;150793;-69
2022/09/12 02:29:43;;;;;;;24.73;20.67;;;13.80;99.90;;;;;;4967981;28;20052;-69
2022/09/12 02:32:35;;;;;;;25.30;20.92;;;13.80;99.90;;;;;;4921888;28;205504;-69
2022/09/12 02:35:06;;;;;;;27.85;23.33;;;13.80;99.90;;;;;;4921098;28;206820;-68
2022/09/12 02:38:10;;;;;;;25.95;20.73;;;13.80;99.90;;;;;;4962657;28;20138;-69
2022/09/12 02:40:36;;;;;;;24.85;20.90;;;13.80;99.90;;;;;;4890778;28;206549;-70
2022/09/12 02:43:04;;;;;;;26.75;22.05;;;13.70;99.90;;;;;;4943225;28;20058;-70
2022/09/12 02:45:33;;;;;;;26.60;21.08;;;13.70;99.90;;;;;;4919419;28;206106;-70
2022/09/12 02:48:08;;;;;;;30.55;22.85;;;13.70;99.90;;;;;;4950383;28;20072;-68
2022/09/12 02:50:36;;;;;;;28.85;20.73;;;13.70;99.90;;;;;;4901678;28;172481;-70
2022/09/12 02:53:05;;;;;;;28.60;22.83;;;13.70;99.90;;;;;;4953854;28;20527;-69
2022/09/12 02:55:33;;;;;;;26.73;22.80;;;13.70;99.90;;;;;;4946533;28;184154;-69
2022/09/12 02:58:07;;;;;;;27.35;22.27;;;13.70;99.90;;;;;;4975682;28;20055;-70
2022/09/12 03:00:40;;;;;;;27.67;21.42;;;13.70;99.90;;;;;;4935043;28;205798;-70
2022/09/12 03:03:19;;;;;;;28.92;21.75;;;13.70;99.90;;;;;;4974036;28;20061;-68
2022/09/12 03:05:56;;;;;;;24.35;20.15;;;13.60;99.90;;;;;;4948692;28;212144;-70
2022/09/12 03:08:37;;;;;;;24.63;18.90;;;13.60;99.90;;;;;;4994514;28;20058;-69
2022/09/12 03:11:25;;;;;;;;;;;13.60;99.90;;;;;;4953534;28;202582;-69
2022/09/12 03:13:58;;;;;;;30.17;23.50;;;13.60;99.90;;;;;;4968764;28;20437;-69
2022/09/12 03:16:52;;;;;;;30.05;23.63;;;13.60;99.90;;;;;;4959708;28;208936;-69
2022/09/12 03:19:36;;;;;;;29.48;23.20;;;13.50;99.90;;;;;;4985440;28;20061;-69
2022/09/12 03:22:08;;;;;;;30.05;23.58;;;13.50;99.90;;;;;;4944914;28;212029;-69
2022/09/12 03:24:42;;;;;;;28.88;23.13;;;13.60;99.90;;;;;;4988497;28;20496;-70
2022/09/12 03:27:19;;;;;;;29.25;23.95;;;13.60;99.90;;;;;;4964315;28;208823;-68
2022/09/12 03:29:47;;;;;;;33.92;25.92;;;13.60;99.90;;;;;;4979081;28;20059;-69
2022/09/12 03:32:14;;;;;;;29.98;24.30;;;13.60;99.90;;;;;;4954457;28;213349;-70
2022/09/12 03:34:40;;;;;;;28.98;24.50;;;13.60;99.90;;;;;;4983592;28;20078;-69
2022/09/12 03:37:06;;;;;;;35.67;27.90;;;13.60;99.90;;;;;;4944281;28;219119;-69
2022/09/12 03:39:33;;;;;;;34.17;26.77;;;13.60;99.90;;;;;;4989492;28;20444;-70
2022/09/12 03:41:59;;;;;;;33.63;26.95;;;13.60;99.90;;;;;;4955486;28;209549;-70
2022/09/12 03:44:25;;;;;;;33.45;25.08;;;13.60;99.90;;;;;;4988348;28;20519;-70
2022/09/12 03:46:51;;;;;;;34.95;26.48;;;13.60;99.90;;;;;;4947088;28;210885;-69
2022/09/12 03:49:17;;;;;;;34.17;27.05;;;13.60;99.90;;;;;;4985385;28;20053;-69
2022/09/12 03:51:44;;;;;;;33.80;26.70;;;13.60;99.90;;;;;;4941242;28;206378;-70
2022/09/12 03:54:10;;;;;;;37.15;27.80;;;13.60;99.90;;;;;;4989245;28;20423;-70
2022/09/12 03:56:37;;;;;;;33.65;27.58;;;13.60;99.90;;;;;;4916941;28;206881;-70
2022/09/12 03:59:06;;;;;;;33.63;25.63;;;13.60;99.90;;;;;;4986850;28;20088;-69
2022/09/12 04:01:33;;;;;;;31.25;25.65;;;13.60;99.90;;;;;;4937595;28;209035;-69
2022/09/12 04:04:00;;;;;;;33.80;26.13;;;13.60;99.90;;;;;;4981744;28;20081;-69
2022/09/12 04:06:26;;;;;;;30.83;24.10;;;13.60;99.90;;;;;;4944582;28;211334;-70
2022/09/12 04:08:53;;;;;;;32.95;26.33;;;13.60;99.90;;;;;;4991752;28;20042;-69
2022/09/12 04:11:21;;;;;;;30.55;24.30;;;13.50;99.90;;;;;;4951563;28;212873;-69
2022/09/12 04:13:47;;;;;;;35.38;27.02;;;13.50;99.90;;;;;;4964457;28;20570;-70
2022/09/12 04:16:15;;;;;;;31.88;25.45;;;13.50;99.90;;;;;;4944539;28;210692;-70
2022/09/12 04:18:42;;;;;;;33.38;25.83;;;13.50;99.90;;;;;;4982748;28;20058;-70
2022/09/12 04:21:11;;;;;;;31.85;24.80;;;13.50;99.90;;;;;;4947933;28;207627;-70
2022/09/12 04:23:37;;;;;;;32.28;25.08;;;13.50;99.90;;;;;;4998392;28;20060;-70
2022/09/12 04:26:07;;;;;;;32.05;25.45;;;13.50;99.90;;;;;;4950095;28;209850;-69
2022/09/12 04:28:35;;;;;;;31.20;25.05;;;13.40;99.90;;;;;;5000917;28;20042;-70
2022/09/12 04:31:22;;;;;;;29.95;22.73;;;13.40;99.90;;;;;;4946402;28;168380;-69
2022/09/12 04:33:59;;;;;;;30.15;25.02;;;13.40;99.90;;;;;;4991869;28;20514;-69
2022/09/12 04:36:27;;;;;;;36.75;27.70;;;13.40;99.90;;;;;;4945138;28;208996;-70
2022/09/12 04:38:54;;;;;;;34.53;25.95;;;13.40;99.90;;;;;;4992624;28;20427;-70
2022/09/12 04:41:25;;;;;;;35.25;26.88;;;13.40;99.90;;;;;;4945636;28;218872;-69
2022/09/12 04:44:02;;;;;;;33.08;25.98;;;13.40;99.90;;;;;;4976123;28;20067;-70
2022/09/12 04:46:32;;;;;;;36.42;26.85;;;13.40;99.90;;;;;;4946672;28;209448;-69
2022/09/12 04:48:58;;;;;;;32.50;26.55;;;13.40;99.90;;;;;;4979425;28;20059;-68
2022/09/12 04:51:28;;;;;;;32.97;25.63;;;13.40;99.90;;;;;;4919038;28;205712;-69
2022/09/12 04:54:00;;;;;;;36.42;27.02;;;13.40;99.90;;;;;;4968569;28;20065;-70
2022/09/12 04:56:28;;;;;;;33.13;26.38;;;13.50;99.90;;;;;;4954379;28;154840;-69
2022/09/12 04:58:59;;;;;;;33.15;26.20;;;13.50;99.90;;;;;;4971218;28;20058;-69
2022/09/12 05:01:27;;;;;;;35.72;27.80;;;13.60;99.90;;;;;;4922161;28;210139;-69
2022/09/12 05:03:54;;;;;;;33.47;26.30;;;13.60;99.90;;;;;;4964668;28;20682;-70
2022/09/12 05:06:29;;;;;;;35.10;25.23;;;13.70;99.90;;;;;;4931010;28;209740;-69
2022/09/12 05:08:57;;;;;;;35.85;26.90;;;13.70;99.90;;;;;;4964535;28;20058;-70
2022/09/12 05:11:25;;;;;;;32.63;26.55;;;13.70;99.90;;;;;;4918634;28;210889;-69
2022/09/12 05:13:52;;;;;;;32.10;26.17;;;13.80;99.90;;;;;;4957276;28;20407;-71
2022/09/12 05:16:19;;;;;;;34.00;26.52;;;13.80;99.90;;;;;;4945505;28;243620;-69
2022/09/12 05:18:46;;;;;;;32.72;26.05;;;13.90;99.90;;;;;;4967575;28;20504;-69
2022/09/12 05:21:16;;;;;;;34.35;26.40;;;13.90;99.90;;;;;;4921828;28;177188;-68
2022/09/12 05:23:43;;;;;;;31.98;26.05;;;13.90;99.90;;;;;;4961957;28;20055;-68
2022/09/12 05:26:14;;;;;;;31.33;24.80;;;14.00;99.90;;;;;;4921876;28;220752;-68
2022/09/12 05:28:41;;;;;;;34.90;26.70;;;14.00;99.90;;;;;;4959557;28;20058;-69
2022/09/12 05:31:14;;;;;;;31.48;24.63;;;14.10;99.90;;;;;;4923535;28;210500;-69
2022/09/12 05:33:42;;;;;;;33.65;26.08;;;14.10;99.90;;;;;;4974266;28;20038;-69
2022/09/12 05:36:14;;;;;;;33.75;26.15;;;14.20;99.90;;;;;;4923322;28;207478;-69
2022/09/12 05:38:40;;;;;;;35.67;27.80;;;14.20;99.90;;;;;;4968956;28;20082;-67
2022/09/12 05:41:14;;;;;;;33.90;26.42;;;14.20;99.90;;;;;;4914932;28;207540;-69
2022/09/12 05:43:41;;;;;;;35.47;26.95;;;14.30;99.90;;;;;;4952977;28;20436;-69
2022/09/12 05:46:11;;;;;;;32.53;25.42;;;14.30;99.90;;;;;;4923607;28;209059;-70
2022/09/12 05:48:40;;;;;;;34.95;26.48;;;14.30;99.90;;;;;;4963562;28;20066;-69
2022/09/12 05:51:19;;;;;;;34.35;26.73;;;14.40;99.90;;;;;;4941761;28;211984;-69
2022/09/12 05:53:51;;;;;;;33.25;27.35;;;14.40;99.90;;;;;;4975778;28;20693;-70
2022/09/12 05:56:22;;;;;;;34.10;26.25;;;14.40;99.90;;;;;;4934558;28;214616;-69
2022/09/12 05:59:00;;;;;;;34.78;27.33;;;14.50;99.90;;;;;;4970365;28;20054;-69
2022/09/12 06:01:28;;;;;;;34.58;26.23;;;14.40;99.90;;;;;;4928323;28;224828;-69
2022/09/12 06:03:59;;;;;;;33.28;26.75;;;14.50;99.90;;;;;;4961514;28;20493;-69
2022/09/12 06:06:26;;;;;;;33.10;26.70;;;14.50;99.90;;;;;;4919160;28;208708;-68
2022/09/12 06:08:57;;;;;;;37.75;27.67;;;14.60;99.90;;;;;;4969611;28;20057;-68
2022/09/12 06:11:25;;;;;;;37.45;28.70;;;14.60;99.90;;;;;;4931767;28;208715;-68
2022/09/12 06:13:51;;;;;;;38.15;28.65;;;14.60;99.90;;;;;;4962904;28;20424;-68
2022/09/12 06:16:28;;;;;;;39.28;29.65;;;14.60;99.90;;;;;;4925298;28;212737;-70
2022/09/12 06:18:56;;;;;;;42.08;30.20;;;14.70;99.90;;;;;;4967258;28;20086;-69
2022/09/12 06:21:25;;;;;;;38.33;29.88;;;14.70;99.90;;;;;;4917587;28;206062;-68
2022/09/12 06:23:54;;;;;;;39.65;28.45;;;14.80;99.90;;;;;;4968878;28;20050;-69
2022/09/12 06:26:22;;;;;;;39.83;29.70;;;14.80;99.90;;;;;;4929222;28;211035;-69
2022/09/12 06:28:49;;;;;;;37.83;29.05;;;14.80;99.90;;;;;;4965712;28;20066;-67
2022/09/12 06:31:24;;;;;;;38.88;28.85;;;14.90;99.90;;;;;;4913492;28;210005;-69
2022/09/12 06:33:51;;;;;;;36.80;29.42;;;14.90;99.90;;;;;;4960194;28;20050;-68
2022/09/12 06:36:21;;;;;;;41.88;29.40;;;15.00;99.90;;;;;;4929294;28;210993;-69
2022/09/12 06:38:52;;;;;;;40.13;30.55;;;15.00;99.90;;;;;;4987593;28;20038;-69
2022/09/12 06:41:18;;;;;;;39.60;30.52;;;15.10;99.90;;;;;;4948146;28;210216;-68
2022/09/12 06:43:44;;;;;;;40.55;30.98;;;15.10;99.90;;;;;;4991917;28;20046;-68
2022/09/12 06:46:11;;;;;;;41.03;31.98;;;15.20;99.90;;;;;;4943962;28;209473;-69
2022/09/12 06:48:38;;;;;;;43.63;31.58;;;15.20;99.90;;;;;;4985794;28;20054;-69
2022/09/12 06:51:08;;;;;;;43.15;32.05;;;15.30;99.90;;;;;;4943593;28;207291;-69
2022/09/12 06:53:35;;;;;;;40.13;31.45;;;15.30;99.90;;;;;;4995609;28;20531;-70
2022/09/12 06:56:09;;;;;;;44.72;32.08;;;15.30;99.90;;;;;;4956261;28;205709;-69
2022/09/12 06:58:35;;;;;;;45.10;33.83;;;15.30;99.90;;;;;;4984406;28;20054;-68
2022/09/12 07:01:04;;;;;;;44.17;33.47;;;15.40;99.90;;;;;;4948922;28;163702;-69
2022/09/12 07:03:31;;;;;;;43.90;33.15;;;15.40;99.90;;;;;;4980257;28;20058;-69
2022/09/12 07:06:01;;;;;;;46.10;34.10;;;15.50;99.90;;;;;;4945849;28;209868;-67
2022/09/12 07:08:29;;;;;;;45.83;32.80;;;15.50;99.90;;;;;;4974818;28;20515;-67
2022/09/12 07:10:56;;;;;;;43.60;34.13;;;15.50;99.90;;;;;;4942107;28;211284;-69
2022/09/12 07:13:23;;;;;;;41.63;32.30;;;15.60;99.90;;;;;;4980142;28;20054;-69
2022/09/12 07:15:50;;;;;;;42.47;32.15;;;15.60;99.90;;;;;;4939020;28;213636;-69
2022/09/12 07:18:16;;;;;;;43.53;32.70;;;15.70;99.90;;;;;;4983886;28;20055;-69
2022/09/12 07:20:43;;;;;;;44.80;33.10;;;15.70;99.90;;;;;;4940461;28;218050;-69
2022/09/12 07:23:10;;;;;;;45.45;33.17;;;15.80;99.90;;;;;;4988391;28;20058;-69
2022/09/12 07:25:36;;;;;;;42.67;32.13;;;15.90;99.90;;;;;;4944358;28;161907;-69
2022/09/12 07:28:02;;;;;;;46.13;32.75;;;15.90;99.90;;;;;;4975383;28;20058;-68
2022/09/12 07:30:28;;;;;;;42.75;31.10;;;16.00;99.90;;;;;;4960441;28;211049;-69
2022/09/12 07:32:54;;;;;;;44.95;32.35;;;16.10;99.90;;;;;;4986997;28;20058;-69
2022/09/12 07:35:21;;;;;;;41.17;31.30;;;16.20;99.90;;;;;;4941055;28;209188;-69
2022/09/12 07:37:47;;;;;;;44.35;32.72;;;16.40;99.90;;;;;;4974143;28;20530;-69
2022/09/12 07:40:13;;;;;;;42.97;31.52;;;16.50;99.90;;;;;;4942113;28;213255;-69
2022/09/12 07:42:39;;;;;;;41.25;29.58;;;16.60;99.90;;;;;;4986166;28;20054;-70
2022/09/12 07:45:06;;;;;;;39.53;30.17;;;16.70;99.90;;;;;;4939364;28;210831;-69
2022/09/12 07:47:32;;;;;;;39.13;29.20;;;16.80;99.90;;;;;;4984447;28;20061;-69
2022/09/12 07:49:58;;;;;;;36.95;28.67;;;16.80;99.90;;;;;;4963142;28;209693;-69
2022/09/12 07:52:24;;;;;;;39.03;29.10;;;16.80;99.90;;;;;;4986166;28;175103;-69
2022/09/12 07:54:51;;;;;;;37.47;29.17;;;16.80;99.90;;;;;;4990823;28;20049;-69
2022/09/12 07:57:17;;;;;;;36.78;29.02;;;16.90;99.90;;;;;;4940017;28;206401;-70
2022/09/12 07:59:43;;;;;;;39.45;29.48;;;16.90;99.90;;;;;;4988897;28;20050;-69
2022/09/12 08:02:12;;;;;;;38.30;29.13;;;17.00;99.90;;;;;;4946633;28;210746;-69
2022/09/12 08:04:40;;;;;;;35.95;28.02;;;17.00;99.90;;;;;;5005445;28;20093;-70
2022/09/12 08:07:07;;;;;;;36.83;27.48;;;17.10;99.90;;;;;;4924677;28;210589;-70
2022/09/12 08:09:34;;;;;;;36.45;26.50;;;17.20;99.90;;;;;;4987735;28;20053;-70
2022/09/12 08:12:01;;;;;;;35.40;28.15;;;17.30;99.90;;;;;;4934684;28;206066;-70
2022/09/12 08:14:27;;;;;;;36.35;28.52;;;17.40;99.90;;;;;;4986524;28;20057;-70
2022/09/12 08:16:53;;;;;;;36.03;27.65;;;17.50;99.90;;;;;;4942573;28;214549;-70
2022/09/12 08:19:21;;;;;;;34.47;26.52;;;17.60;99.90;;;;;;4990106;28;20050;-70
2022/09/12 08:21:47;;;;;;;35.47;26.20;;;17.70;99.90;;;;;;4927362;28;208768;-71
2022/09/12 08:24:14;;;;;;;34.53;26.35;;;17.80;99.90;;;;;;4973979;28;20046;-71
2022/09/12 08:26:40;;;;;;;32.70;25.77;;;17.90;99.90;;;;;;4932401;28;209433;-72
2022/09/12 08:29:06;;;;;;;33.35;25.92;;;17.90;99.90;;;;;;4989919;28;20050;-72
2022/09/12 08:31:35;;;;;;;36.10;26.10;;;18.00;99.90;;;;;;4960719;28;213282;-70
2022/09/12 08:34:04;;;;;;;33.55;25.92;;;18.10;99.90;;;;;;4989643;28;20058;-71
2022/09/12 08:36:31;;;;;;;35.05;25.60;;;18.10;99.90;;;;;;4948113;28;205948;-71
2022/09/12 08:39:02;;;;;;;32.80;24.48;;;18.10;99.90;;;;;;4987607;28;20054;-71
2022/09/12 08:41:39;;;;;;;33.47;25.30;;;18.20;99.90;;;;;;4948575;28;178346;-71
2022/09/12 08:44:39;;;;;;;35.63;25.02;;;18.30;99.90;;;;;;4985066;28;20384;-72
2022/09/12 08:47:25;;;;;;;32.47;23.90;;;18.40;99.90;;;;;;4927599;28;207898;-73
2022/09/12 08:49:55;;;;;;;34.92;24.55;;;18.60;99.90;;;;;;4987266;28;20054;-72
2022/09/12 08:52:27;;;;;;;32.92;23.75;;;18.70;99.90;;;;;;4945435;28;207118;-71
2022/09/12 08:54:55;;;;;;;34.35;24.90;;;18.90;99.90;;;;;;4982777;28;20074;-72
2022/09/12 08:57:23;;;;;;;30.30;23.20;;;19.10;99.90;;;;;;4919910;28;206871;-72
2022/09/12 08:59:50;;;;;;;33.08;24.08;;;19.30;99.90;;;;;;4985914;28;20065;-72
2022/09/12 09:02:25;;;;;;;34.28;24.35;;;19.40;99.90;;;;;;4933525;28;203273;-72
2022/09/12 09:04:55;;;;;;;32.08;23.48;;;19.60;99.90;;;;;;4992069;28;20528;-72
2022/09/12 09:07:36;;;;;;;32.60;24.67;;;19.80;99.90;;;;;;4945597;28;206795;-72
2022/09/12 09:10:14;;;;;;;37.55;25.83;;;19.90;99.90;;;;;;4941207;28;209054;-72
2022/09/12 09:12:52;;;;;;;33.58;25.88;;;19.90;99.90;;;;;;4975885;28;20050;-72
2022/09/12 09:15:43;;;;;;;36.35;26.60;;;20.00;99.90;;;;;;4935189;28;209442;-72
2022/09/12 09:18:27;;;;;;;37.10;27.08;;;20.10;99.90;;;;;;4962562;28;20058;-72
2022/09/12 09:21:07;;;;;;;36.88;27.23;;;20.10;99.90;;;;;;4956050;28;204941;-71
2022/09/12 09:23:42;;;;;;;39.33;28.38;;;20.20;99.90;;;;;;4978511;28;20811;-72
2022/09/12 09:26:16;;;;;;;37.03;27.17;;;20.30;99.90;;;;;;4948766;28;204373;-72
2022/09/12 09:28:53;;;;;;;41.15;30.55;;;20.30;99.90;;;;;;4983999;28;20055;-71
2022/09/12 09:31:21;;;;;;;41.70;29.95;;;20.50;99.90;;;;;;4946322;28;195637;-72
2022/09/12 09:33:54;;;;;;;39.67;29.42;;;20.80;99.90;;;;;;4986763;28;20051;-72
2022/09/12 09:36:38;;;;;;;39.58;29.35;;;21.20;99.90;;;;;;4928763;28;209301;-73
2022/09/12 09:39:15;;;;;;;41.38;28.63;;;21.50;99.90;;;;;;4962967;28;20503;-73
2022/09/12 09:42:02;;;;;;;40.33;29.63;;;21.80;99.90;;;;;;4925941;28;206015;-73
2022/09/12 09:44:29;;;;;;;40.65;29.58;;;22.00;99.90;;;;;;4966701;28;20043;-71
2022/09/12 09:46:58;;;;;;;42.63;30.33;;;22.00;99.90;;;;;;4908505;28;208944;-72
2022/09/12 09:49:27;;;;;;;40.97;30.60;;;22.10;99.90;;;;;;4967189;28;20058;-73
2022/09/12 09:51:54;;;;;;;39.78;28.95;;;22.20;99.90;;;;;;4928324;28;205855;-73
2022/09/12 09:54:28;;;;;;;41.92;30.13;;;22.50;99.90;;;;;;4964078;28;20062;-72
2022/09/12 09:56:55;;;;;;;37.85;27.85;;;22.60;99.90;;;;;;4937726;28;210762;-72
2022/09/12 09:59:30;;;;;;;38.55;29.02;;;22.50;99.90;;;;;;4969329;28;20054;-71
2022/09/12 10:02:16;;;;;;;41.28;29.85;;;22.80;99.90;;;;;;4934867;28;211900;-72
2022/09/12 10:04:54;;;;;;;40.00;30.23;;;22.80;99.90;;;;;;4958615;28;20496;-71
2022/09/12 10:07:21;;;;;;;38.92;28.85;;;23.50;99.90;;;;;;4903112;28;208986;-72
2022/09/12 10:10:04;;;;;;;42.10;29.63;;;24.20;99.90;;;;;;4954081;28;20054;-72
2022/09/12 10:12:30;;;;;;;35.45;27.42;;;24.90;99.90;;;;;;4926922;28;206634;-73
2022/09/12 10:15:01;;;;;;;36.42;27.15;;;25.20;99.90;;;;;;4975391;28;221220;-72
2022/09/12 10:17:30;;;;;;;33.88;25.15;;;25.60;99.20;;;;;;4946986;28;167642;-73
2022/09/12 10:19:57;;;;;;;33.63;25.67;;;25.80;99.90;;;;;;4960631;28;210548;-72
2022/09/12 10:22:28;;;;;;;34.00;25.35;;;26.40;99.90;;;;;;4935010;28;188259;-72
2022/09/12 10:24:57;;;;;;;30.40;22.30;;;26.90;99.90;;;;;;4968698;28;20046;-73
2022/09/12 10:27:28;;;;;;;29.13;22.43;;;27.00;98.40;;;;;;4931598;28;206111;-73
2022/09/12 10:30:02;;;;;;;;;;;27.00;97.60;;;;;;4971400;28;20061;-73
2022/09/12 10:32:39;;;;;;;30.08;22.30;;;27.00;95.20;;;;;;4919641;28;170535;-73
2022/09/12 10:35:20;;;;;;;28.85;20.20;;;26.90;95.70;;;;;;4939542;28;209031;-72
2022/09/12 10:37:52;;;;;;;24.90;18.45;;;27.00;96.70;;;;;;4970617;28;20408;-73
2022/09/12 10:40:26;;;;;;;19.67;14.45;;;27.10;95.10;;;;;;4925824;28;213113;-72
2022/09/12 10:42:55;;;;;;;19.83;14.98;;;27.00;93.50;;;;;;4970366;28;20054;-75
2022/09/12 10:45:24;;;;;;;20.33;14.70;;;26.90;95.10;;;;;;4946071;28;189648;-74
2022/09/12 10:47:52;;;;;;;19.83;14.65;;;26.60;95.00;;;;;;4982736;28;20057;-73
2022/09/12 10:50:26;;;;;;;22.08;13.30;;;27.00;94.40;;;;;;4942521;28;210139;-74
2022/09/12 10:52:53;;;;;;;18.00;13.43;;;27.30;93.50;;;;;;4991279;28;20062;-74
2022/09/12 10:55:29;;;;;;;19.30;13.90;;;27.50;93.80;;;;;;4942603;28;210102;-73
2022/09/12 10:58:08;;;;;;;19.95;14.38;;;27.70;93.70;;;;;;4997463;28;20050;-73
2022/09/12 11:00:39;;;;;;;19.45;14.00;;;27.80;93.80;;;;;;4940834;28;209434;-73
2022/09/12 11:04:13;;;;;;;20.63;13.02;;;28.00;92.90;;;;;;4983302;28;20054;-73
2022/09/12 11:06:57;;;;;;;20.50;14.38;;;28.30;91.10;;;;;;4851901;28;206731;-73
2022/09/12 11:09:31;;;;;;;19.45;13.52;;;28.40;91.60;;;;;;4932464;29;20190;-73
2022/09/12 11:12:18;;;;;;;19.00;14.30;;;28.30;91.70;;;;;;4885917;28;212497;-73
2022/09/12 11:15:16;;;;;;;20.75;14.48;;;28.70;92.30;;;;;;4933764;29;20077;-72
2022/09/12 11:18:22;;;;;;;19.48;13.63;;;29.40;90.80;;;;;;4873476;29;205302;-73
2022/09/12 11:21:12;;;;;;;18.00;12.52;;;29.50;90.40;;;;;;4872603;28;212663;-73
2022/09/12 11:24:00;;;;;;;19.63;13.20;;;29.50;87.40;;;;;;4892449;29;20062;-73
2022/09/12 11:26:56;;;;;;;15.25;10.90;;;29.50;90.00;;;;;;4851568;29;205649;-73
2022/09/12 11:29:37;;;;;;;14.73;10.07;;;29.70;84.50;;;;;;4923230;29;20055;-73
2022/09/12 11:32:16;;;;;;;13.95;9.75;;;29.70;85.40;;;;;;4881453;28;207478;-73
2022/09/12 11:35:06;;;;;;;18.08;11.43;;;29.80;86.10;;;;;;4932152;29;20059;-73
2022/09/12 11:37:56;;;;;;;15.68;11.20;;;29.50;82.90;;;;;;4905475;28;205977;-73
2022/09/12 11:40:40;;;;;;;14.80;10.63;;;29.10;84.50;;;;;;4932532;28;205934;-73
2022/09/12 11:43:22;;;;;;;14.50;10.55;;;29.10;85.50;;;;;;4976622;28;20455;-73
2022/09/12 11:45:49;;;;;;;15.68;10.00;;;29.20;84.30;;;;;;4931985;28;222110;-73
2022/09/12 11:48:36;;;;;;;14.20;8.52;;;28.90;86.30;;;;;;4976672;28;20530;-73
2022/09/12 11:51:06;;;;;;;14.40;8.45;;;28.80;85.70;;;;;;4925279;28;209039;-72
2022/09/12 11:53:39;;;;;;;14.27;8.45;;;29.00;86.20;;;;;;4957483;28;20055;-73
2022/09/12 11:56:17;;;;;;;13.85;8.30;;;28.80;84.20;;;;;;4932126;28;207286;-73
2022/09/12 11:58:54;;;;;;;13.57;8.32;;;29.00;82.40;;;;;;4986092;28;20058;-74
2022/09/12 12:01:28;;;;;;;17.13;9.80;;;29.00;83.50;;;;;;4958826;28;210923;-73
2022/09/12 12:03:56;;;;;;;11.30;7.05;;;29.30;83.30;;;;;;4984658;28;20057;-73
2022/09/12 12:06:26;;;;;;;11.82;5.65;;;29.50;82.50;;;;;;4927270;28;205717;-73
2022/09/12 12:08:52;;;;;;;10.38;5.10;;;29.70;80.50;;;;;;4962506;28;20424;-72
2022/09/12 12:11:32;;;;;;;14.32;7.38;;;29.80;78.20;;;;;;4928229;28;210088;-73
2022/09/12 12:14:12;;;;;;;10.13;5.00;;;29.70;79.80;;;;;;4969320;28;20050;-74
2022/09/12 12:16:39;;;;;;;10.88;5.07;;;29.60;76.50;;;;;;4928322;28;208410;-73
2022/09/12 12:19:28;;;;;;;11.15;6.03;;;29.70;77.40;;;;;;4965267;28;20530;-73
2022/09/12 12:21:54;;;;;;;12.55;6.15;;;29.50;73.00;;;;;;4933580;28;213909;-72
2022/09/12 12:24:23;;;;;;;10.77;6.25;;;29.20;76.00;;;;;;4963153;28;20067;-73
2022/09/12 12:26:59;;;;;;;11.00;5.55;;;29.60;77.60;;;;;;4909615;28;199201;-73
2022/09/12 12:29:34;;;;;;;13.52;6.97;;;29.80;73.20;;;;;;4960978;28;20062;-72
2022/09/12 12:32:19;;;;;;;12.48;7.10;;;29.70;73.20;;;;;;4937795;28;210421;-73
2022/09/12 12:34:47;;;;;;;11.07;6.18;;;29.40;72.90;;;;;;4961256;28;20259;-72
2022/09/12 12:37:21;;;;;;;11.25;6.18;;;29.40;74.30;;;;;;4911174;28;210063;-72
2022/09/12 12:39:52;;;;;;;11.90;5.47;;;29.30;72.60;;;;;;4963547;28;20062;-74
2022/09/12 12:42:33;;;;;;;9.95;4.80;;;29.50;74.50;;;;;;4931182;28;207372;-73
2022/09/12 12:45:26;;;;;;;10.00;5.32;;;29.70;70.00;;;;;;4935228;28;209332;-72
2022/09/12 12:48:08;;;;;;;11.82;7.20;;;29.40;70.40;;;;;;4934283;28;205659;-72
2022/09/12 12:50:35;;;;;;;13.35;7.80;;;28.60;72.40;;;;;;4942382;28;206701;-72